createdAt,value
2023-02-25T00:00:44.850Z,5.01
2023-02-25T00:01:57.873Z,5.00
2023-02-25T00:02:45.875Z,5.00
2023-02-25T00:03:44.878Z,4.97
2023-02-25T00:04:44.814Z,4.91
2023-02-25T00:05:44.791Z,5.00
2023-02-25T00:06:44.786Z,4.98
2023-02-25T00:07:44.768Z,4.96
2023-02-25T00:08:44.774Z,5.00
2023-02-25T00:09:44.768Z,5.00
2023-02-25T00:10:44.740Z,5.00
2023-02-25T00:11:44.760Z,5.06
2023-02-25T00:12:44.715Z,5.06
2023-02-25T00:13:44.725Z,5.04
2023-02-25T00:14:44.715Z,5.14
2023-02-25T00:15:44.717Z,5.11
2023-02-25T00:16:44.739Z,4.98
2023-02-25T00:17:44.666Z,4.97
2023-02-25T00:18:44.657Z,5.06
2023-02-25T00:19:44.645Z,4.98
2023-02-25T00:20:44.643Z,4.93
2023-02-25T00:21:44.661Z,4.98
2023-02-25T00:22:44.609Z,4.89
2023-02-25T00:23:44.611Z,4.88
2023-02-25T00:24:44.596Z,4.91
2023-02-25T00:25:44.599Z,4.93
2023-02-25T00:26:44.630Z,4.89
2023-02-25T00:27:44.597Z,4.85
2023-02-25T00:28:44.551Z,4.83
2023-02-25T00:29:44.552Z,4.82
2023-02-25T00:30:44.625Z,4.85
2023-02-25T00:31:44.806Z,4.83
2023-02-25T00:32:44.548Z,4.86
2023-02-25T00:33:44.549Z,4.74
2023-02-25T00:34:44.500Z,4.83
2023-02-25T00:35:44.497Z,4.71
2023-02-25T00:36:44.570Z,4.63
2023-02-25T00:37:44.495Z,4.57
2023-02-25T00:38:44.475Z,4.59
2023-02-25T00:39:44.574Z,4.63
2023-02-25T00:40:44.442Z,4.54
2023-02-25T00:41:44.429Z,4.45
2023-02-25T00:42:44.427Z,4.34
2023-02-25T00:43:44.442Z,4.05
2023-02-25T00:44:44.403Z,4.03
2023-02-25T00:45:44.406Z,3.96
2023-02-25T00:46:44.380Z,3.85
2023-02-25T00:47:44.383Z,3.82
2023-02-25T00:48:44.374Z,3.87
2023-02-25T00:49:44.349Z,3.84
2023-02-25T00:50:44.340Z,3.81
2023-02-25T00:51:44.326Z,3.94
2023-02-25T00:52:44.337Z,4.03
2023-02-25T00:53:44.307Z,4.00
2023-02-25T00:54:44.311Z,4.03
2023-02-25T00:55:44.280Z,4.02
2023-02-25T00:56:44.277Z,3.98
2023-02-25T00:57:44.257Z,4.00
2023-02-25T00:58:44.287Z,4.03
2023-02-25T00:59:44.262Z,4.16
2023-02-25T01:00:51.599Z,4.10
2023-02-25T01:01:45.304Z,4.24
2023-02-25T01:02:44.238Z,4.23
2023-02-25T01:03:44.208Z,4.23
2023-02-25T01:04:44.206Z,4.24
2023-02-25T01:05:44.190Z,4.35
2023-02-25T01:06:44.190Z,4.30
2023-02-25T01:07:44.150Z,4.30
2023-02-25T01:08:44.211Z,4.34
2023-02-25T01:09:44.141Z,4.31
2023-02-25T01:10:44.128Z,4.35
2023-02-25T01:11:44.107Z,4.39
2023-02-25T01:12:44.132Z,4.43
2023-02-25T01:13:44.159Z,4.46
2023-02-25T01:14:44.092Z,4.35
2023-02-25T01:15:44.108Z,4.48
2023-02-25T01:16:44.108Z,4.41
2023-02-25T01:17:44.039Z,4.38
2023-02-25T01:18:44.029Z,4.56
2023-02-25T01:19:44.026Z,4.53
2023-02-25T01:20:44.031Z,4.48
2023-02-25T01:21:44.024Z,4.42
2023-02-25T01:22:43.999Z,4.45
2023-02-25T01:23:43.978Z,4.53
2023-02-25T01:24:43.993Z,4.46
2023-02-25T01:25:43.959Z,4.53
2023-02-25T01:26:43.960Z,4.59
2023-02-25T01:27:43.959Z,4.57
2023-02-25T01:28:43.931Z,4.53
2023-02-25T01:29:43.919Z,4.48
2023-02-25T01:30:43.969Z,4.59
2023-02-25T01:31:44.105Z,4.54
2023-02-25T01:32:44.031Z,4.56
2023-02-25T01:33:43.881Z,4.49
2023-02-25T01:34:43.857Z,4.56
2023-02-25T01:35:43.851Z,4.46
2023-02-25T01:36:43.842Z,4.48
2023-02-25T01:37:43.847Z,4.49
2023-02-25T01:38:43.845Z,4.45
2023-02-25T01:39:43.820Z,4.45
2023-02-25T01:40:43.814Z,4.39
2023-02-25T01:41:43.791Z,4.41
2023-02-25T01:42:43.793Z,4.36
2023-02-25T01:43:43.788Z,4.41
2023-02-25T01:44:43.768Z,4.46
2023-02-25T01:45:43.762Z,4.42
2023-02-25T01:46:43.822Z,4.38
2023-02-25T01:47:43.773Z,4.39
2023-02-25T01:48:43.744Z,4.39
2023-02-25T01:49:43.712Z,4.39
2023-02-25T01:50:43.710Z,4.41
2023-02-25T01:51:43.700Z,4.41
2023-02-25T01:52:43.679Z,4.41
2023-02-25T01:53:43.704Z,4.39
2023-02-25T01:54:43.658Z,4.36
2023-02-25T01:55:43.655Z,4.38
2023-02-25T01:56:43.661Z,4.39
2023-02-25T01:57:43.626Z,4.35
2023-02-25T01:58:43.612Z,4.39
2023-02-25T01:59:43.624Z,4.35
2023-02-25T02:00:43.619Z,4.34
2023-02-25T02:01:43.589Z,4.31
2023-02-25T02:02:43.610Z,4.30
2023-02-25T02:03:43.614Z,4.36
2023-02-25T02:04:43.575Z,4.30
2023-02-25T02:05:43.568Z,4.42
2023-02-25T02:06:43.538Z,4.27
2023-02-25T02:07:43.529Z,4.36
2023-02-25T02:08:43.502Z,4.31
2023-02-25T02:09:43.494Z,4.27
2023-02-25T02:10:43.489Z,4.35
2023-02-25T02:11:43.483Z,4.39
2023-02-25T02:12:43.473Z,4.31
2023-02-25T02:13:43.461Z,4.35
2023-02-25T02:14:43.445Z,4.38
2023-02-25T02:15:43.437Z,4.39
2023-02-25T02:16:43.553Z,4.42
2023-02-25T02:17:43.409Z,4.35
2023-02-25T02:18:43.404Z,4.34
2023-02-25T02:19:43.406Z,4.36
2023-02-25T02:20:43.381Z,4.43
2023-02-25T02:21:43.384Z,4.39
2023-02-25T02:22:43.355Z,4.38
2023-02-25T02:23:43.367Z,4.46
2023-02-25T02:24:43.338Z,4.43
2023-02-25T02:25:43.348Z,4.49
2023-02-25T02:26:43.331Z,4.48
2023-02-25T02:27:43.305Z,4.51
2023-02-25T02:28:43.316Z,4.49
2023-02-25T02:29:43.285Z,4.46
2023-02-25T02:30:43.304Z,4.49
2023-02-25T02:31:43.335Z,4.49
2023-02-25T02:32:43.375Z,4.39
2023-02-25T02:33:43.236Z,4.42
2023-02-25T02:34:43.235Z,4.43
2023-02-25T02:35:43.241Z,4.42
2023-02-25T02:36:43.203Z,4.45
2023-02-25T02:37:43.226Z,4.41
2023-02-25T02:38:43.189Z,4.35
2023-02-25T02:39:43.181Z,4.41
2023-02-25T02:40:43.168Z,4.43
2023-02-25T02:41:43.160Z,4.43
2023-02-25T02:42:43.136Z,4.38
2023-02-25T02:43:43.164Z,4.41
2023-02-25T02:44:43.124Z,4.38
2023-02-25T02:45:43.163Z,4.34
2023-02-25T02:46:43.093Z,4.45
2023-02-25T02:47:43.121Z,4.36
2023-02-25T02:48:43.089Z,4.28
2023-02-25T02:49:43.076Z,4.39
2023-02-25T02:50:43.067Z,4.30
2023-02-25T02:51:43.063Z,4.30
2023-02-25T02:52:43.066Z,4.24
2023-02-25T02:53:43.037Z,4.31
2023-02-25T02:54:43.023Z,4.30
2023-02-25T02:55:43.021Z,4.31
2023-02-25T02:56:43.007Z,4.30
2023-02-25T02:57:42.970Z,4.41
2023-02-25T02:58:42.967Z,4.36
2023-02-25T02:59:43.275Z,4.23
2023-02-25T03:00:43.022Z,4.30
2023-02-25T03:01:42.944Z,4.30
2023-02-25T03:02:42.937Z,4.31
2023-02-25T03:03:43.043Z,4.34
2023-02-25T03:04:42.909Z,4.27
2023-02-25T03:05:42.897Z,4.27
2023-02-25T03:06:42.877Z,4.24
2023-02-25T03:07:42.888Z,4.38
2023-02-25T03:08:42.866Z,4.31
2023-02-25T03:09:42.869Z,4.41
2023-02-25T03:10:42.904Z,4.35
2023-02-25T03:11:42.828Z,4.18
2023-02-25T03:12:42.813Z,4.31
2023-02-25T03:13:42.817Z,4.34
2023-02-25T03:14:42.841Z,4.31
2023-02-25T03:15:42.789Z,4.38
2023-02-25T03:16:42.872Z,4.41
2023-02-25T03:17:42.764Z,4.24
2023-02-25T03:18:42.749Z,4.31
2023-02-25T03:19:42.748Z,4.36
2023-02-25T03:20:42.748Z,4.28
2023-02-25T03:21:42.736Z,4.21
2023-02-25T03:22:42.747Z,4.18
2023-02-25T03:23:42.720Z,4.30
2023-02-25T03:24:42.694Z,4.27
2023-02-25T03:25:42.683Z,4.24
2023-02-25T03:26:42.829Z,4.24
2023-02-25T03:27:42.659Z,4.27
2023-02-25T03:28:42.670Z,4.27
2023-02-25T03:29:42.633Z,4.20
2023-02-25T03:30:42.683Z,4.27
2023-02-25T03:31:42.783Z,4.24
2023-02-25T03:32:42.725Z,4.23
2023-02-25T03:33:42.606Z,4.26
2023-02-25T03:34:42.591Z,4.24
2023-02-25T03:35:42.577Z,4.20
2023-02-25T03:36:42.569Z,4.28
2023-02-25T03:37:42.575Z,4.18
2023-02-25T03:38:42.567Z,4.20
2023-02-25T03:39:42.569Z,4.18
2023-02-25T03:40:42.519Z,4.18
2023-02-25T03:41:42.518Z,4.20
2023-02-25T03:42:42.497Z,4.20
2023-02-25T03:43:42.506Z,4.10
2023-02-25T03:44:42.498Z,4.21
2023-02-25T03:45:42.498Z,4.12
2023-02-25T03:46:42.464Z,4.16
2023-02-25T03:47:42.481Z,4.18
2023-02-25T03:48:42.444Z,4.16
2023-02-25T03:49:42.462Z,4.12
2023-02-25T03:50:42.426Z,4.13
2023-02-25T03:51:42.410Z,4.05
2023-02-25T03:52:42.424Z,4.12
2023-02-25T03:53:42.391Z,4.12
2023-02-25T03:54:42.383Z,4.10
2023-02-25T03:55:42.391Z,3.98
2023-02-25T03:56:42.348Z,3.94
2023-02-25T03:57:42.357Z,3.90
2023-02-25T03:58:42.357Z,3.84
2023-02-25T03:59:42.343Z,3.82
2023-02-25T04:00:42.311Z,3.80
2023-02-25T04:01:42.331Z,3.78
2023-02-25T04:02:42.372Z,3.72
2023-02-25T04:03:42.284Z,3.73
2023-02-25T04:04:42.333Z,3.74
2023-02-25T04:05:42.269Z,3.78
2023-02-25T04:06:42.246Z,3.74
2023-02-25T04:07:42.272Z,3.76
2023-02-25T04:08:42.269Z,3.78
2023-02-25T04:09:42.210Z,3.72
2023-02-25T04:10:42.215Z,3.72
2023-02-25T04:11:42.239Z,3.72
2023-02-25T04:12:42.187Z,3.76
2023-02-25T04:13:42.168Z,3.80
2023-02-25T04:14:42.197Z,3.76
2023-02-25T04:15:42.259Z,3.70
2023-02-25T04:16:42.143Z,3.67
2023-02-25T04:17:42.133Z,3.72
2023-02-25T04:18:42.116Z,3.72
2023-02-25T04:19:42.117Z,3.67
2023-02-25T04:20:42.131Z,3.67
2023-02-25T04:21:42.115Z,3.70
2023-02-25T04:22:42.075Z,3.69
2023-02-25T04:23:42.057Z,3.70
2023-02-25T04:24:42.060Z,3.80
2023-02-25T04:25:42.056Z,3.74
2023-02-25T04:26:42.032Z,3.73
2023-02-25T04:27:42.056Z,3.74
2023-02-25T04:28:42.028Z,3.70
2023-02-25T04:29:42.014Z,3.76
2023-02-25T04:30:42.049Z,3.74
2023-02-25T04:31:42.350Z,3.73
2023-02-25T04:32:42.049Z,3.70
2023-02-25T04:33:41.974Z,3.76
2023-02-25T04:34:41.946Z,3.76
2023-02-25T04:35:41.939Z,3.72
2023-02-25T04:36:41.930Z,3.73
2023-02-25T04:37:41.920Z,3.74
2023-02-25T04:38:41.900Z,3.81
2023-02-25T04:39:41.900Z,3.82
2023-02-25T04:40:41.878Z,3.73
2023-02-25T04:41:41.881Z,3.87
2023-02-25T04:42:41.882Z,3.80
2023-02-25T04:43:41.872Z,3.73
2023-02-25T04:44:41.836Z,3.85
2023-02-25T04:45:41.844Z,3.73
2023-02-25T04:46:41.872Z,3.80
2023-02-25T04:47:41.824Z,3.80
2023-02-25T04:48:41.811Z,3.87
2023-02-25T04:49:41.785Z,3.80
2023-02-25T04:50:41.784Z,3.81
2023-02-25T04:51:41.773Z,3.85
2023-02-25T04:52:41.794Z,3.84
2023-02-25T04:53:41.753Z,3.84
2023-02-25T04:54:41.740Z,3.81
2023-02-25T04:55:41.727Z,3.88
2023-02-25T04:56:41.716Z,3.84
2023-02-25T04:57:41.738Z,3.84
2023-02-25T04:58:41.693Z,3.85
2023-02-25T04:59:41.698Z,3.82
2023-02-25T05:00:41.670Z,3.80
2023-02-25T05:01:41.731Z,3.74
2023-02-25T05:02:41.650Z,3.72
2023-02-25T05:03:41.664Z,3.81
2023-02-25T05:04:41.694Z,3.67
2023-02-25T05:05:41.615Z,3.78
2023-02-25T05:06:41.611Z,3.76
2023-02-25T05:07:41.629Z,3.78
2023-02-25T05:08:41.612Z,3.78
2023-02-25T05:09:41.591Z,3.74
2023-02-25T05:10:41.564Z,3.80
2023-02-25T05:11:41.559Z,3.81
2023-02-25T05:12:41.575Z,3.74
2023-02-25T05:13:41.531Z,3.73
2023-02-25T05:14:41.532Z,3.73
2023-02-25T05:15:41.542Z,3.76
2023-02-25T05:16:41.597Z,3.73
2023-02-25T05:17:41.509Z,3.69
2023-02-25T05:18:41.528Z,3.60
2023-02-25T05:19:41.494Z,3.59
2023-02-25T05:20:41.555Z,3.54
2023-02-25T05:21:41.461Z,3.46
2023-02-25T05:22:41.482Z,3.46
2023-02-25T05:23:41.437Z,3.44
2023-02-25T05:24:41.459Z,3.48
2023-02-25T05:25:41.421Z,3.37
2023-02-25T05:26:41.393Z,3.30
2023-02-25T05:27:41.404Z,3.42
2023-02-25T05:28:41.395Z,3.30
2023-02-25T05:29:41.446Z,3.27
2023-02-25T05:30:41.376Z,3.22
2023-02-25T05:31:41.554Z,3.14
2023-02-25T05:32:41.568Z,3.15
2023-02-25T05:33:41.354Z,3.15
2023-02-25T05:34:41.312Z,3.18
2023-02-25T05:35:41.328Z,3.08
2023-02-25T05:36:41.312Z,3.11
2023-02-25T05:37:41.292Z,2.97
2023-02-25T05:38:41.269Z,3.07
2023-02-25T05:39:41.288Z,3.07
2023-02-25T05:40:41.275Z,2.99
2023-02-25T05:41:41.269Z,2.97
2023-02-25T05:42:41.239Z,2.97
2023-02-25T05:43:41.214Z,3.08
2023-02-25T05:44:41.218Z,2.94
2023-02-25T05:45:41.216Z,2.89
2023-02-25T05:46:41.234Z,2.84
2023-02-25T05:47:41.204Z,2.96
2023-02-25T05:48:41.179Z,3.02
2023-02-25T05:49:41.157Z,2.84
2023-02-25T05:50:41.241Z,2.87
2023-02-25T05:51:41.152Z,2.91
2023-02-25T05:52:41.152Z,2.89
2023-02-25T05:53:41.128Z,2.94
2023-02-25T05:54:41.134Z,2.96
2023-02-25T05:55:41.089Z,2.86
2023-02-25T05:56:41.091Z,2.82
2023-02-25T05:57:41.094Z,2.82
2023-02-25T05:58:41.068Z,2.94
2023-02-25T05:59:41.066Z,2.93
2023-02-25T06:00:41.046Z,2.87
2023-02-25T06:01:41.068Z,2.94
2023-02-25T06:02:41.021Z,2.90
2023-02-25T06:03:41.096Z,2.93
2023-02-25T06:04:41.004Z,2.94
2023-02-25T06:05:40.989Z,2.93
2023-02-25T06:06:40.983Z,2.89
2023-02-25T06:07:40.969Z,2.90
2023-02-25T06:08:40.982Z,2.87
2023-02-25T06:09:40.963Z,2.79
2023-02-25T06:10:40.946Z,2.87
2023-02-25T06:11:40.940Z,2.96
2023-02-25T06:12:40.915Z,2.84
2023-02-25T06:13:40.920Z,2.84
2023-02-25T06:14:40.911Z,2.82
2023-02-25T06:15:40.893Z,2.82
2023-02-25T06:16:40.928Z,2.91
2023-02-25T06:17:40.877Z,2.93
2023-02-25T06:18:40.880Z,2.91
2023-02-25T06:19:40.862Z,2.90
2023-02-25T06:20:40.840Z,2.91
2023-02-25T06:21:40.826Z,2.94
2023-02-25T06:22:40.814Z,3.02
2023-02-25T06:23:40.803Z,2.94
2023-02-25T06:24:40.838Z,2.99
2023-02-25T06:25:40.806Z,3.02
2023-02-25T06:26:40.772Z,2.96
2023-02-25T06:27:40.764Z,2.93
2023-02-25T06:28:40.757Z,2.97
2023-02-25T06:29:40.740Z,2.96
2023-02-25T06:30:40.758Z,3.00
2023-02-25T06:31:40.832Z,3.04
2023-02-25T06:32:40.751Z,3.07
2023-02-25T06:33:40.700Z,3.09
2023-02-25T06:34:40.707Z,3.14
2023-02-25T06:35:40.717Z,2.94
2023-02-25T06:36:40.667Z,3.11
2023-02-25T06:37:40.679Z,3.18
2023-02-25T06:38:40.642Z,3.12
2023-02-25T06:39:40.647Z,2.99
2023-02-25T06:40:40.619Z,3.00
2023-02-25T06:41:40.639Z,3.08
2023-02-25T06:42:40.602Z,3.07
2023-02-25T06:43:40.616Z,3.17
2023-02-25T06:44:40.576Z,2.99
2023-02-25T06:45:40.581Z,3.18
2023-02-25T06:46:40.563Z,3.11
2023-02-25T06:47:40.599Z,3.17
2023-02-25T06:48:40.551Z,3.15
2023-02-25T06:49:40.544Z,3.11
2023-02-25T06:50:40.514Z,3.15
2023-02-25T06:51:40.536Z,3.11
2023-02-25T06:52:40.552Z,3.08
2023-02-25T06:53:40.500Z,3.15
2023-02-25T06:54:40.478Z,3.11
2023-02-25T06:55:40.487Z,3.11
2023-02-25T06:56:40.465Z,3.11
2023-02-25T06:57:40.454Z,3.12
2023-02-25T06:58:40.471Z,3.11
2023-02-25T06:59:40.428Z,3.02
2023-02-25T07:00:40.413Z,3.20
2023-02-25T07:01:40.481Z,3.09
2023-02-25T07:02:40.394Z,3.14
2023-02-25T07:03:40.382Z,3.14
2023-02-25T07:04:42.346Z,3.11
2023-02-25T07:05:40.377Z,3.11
2023-02-25T07:06:40.366Z,3.11
2023-02-25T07:07:40.385Z,3.04
2023-02-25T07:08:40.329Z,3.17
2023-02-25T07:09:40.341Z,3.17
2023-02-25T07:10:40.307Z,3.07
2023-02-25T07:11:40.304Z,3.14
2023-02-25T07:12:40.301Z,3.14
2023-02-25T07:13:40.273Z,3.12
2023-02-25T07:14:40.291Z,3.14
2023-02-25T07:15:40.318Z,3.12
2023-02-25T07:16:40.324Z,3.07
2023-02-25T07:17:40.233Z,3.11
2023-02-25T07:18:40.219Z,3.08
2023-02-25T07:19:40.232Z,3.05
2023-02-25T07:20:40.197Z,3.02
2023-02-25T07:21:40.191Z,3.12
2023-02-25T07:22:40.189Z,2.99
2023-02-25T07:23:40.184Z,3.11
2023-02-25T07:24:40.160Z,3.05
2023-02-25T07:25:40.148Z,3.08
2023-02-25T07:26:40.138Z,3.07
2023-02-25T07:27:40.135Z,2.99
2023-02-25T07:28:40.131Z,3.05
2023-02-25T07:29:40.124Z,2.94
2023-02-25T07:30:40.128Z,3.02
2023-02-25T07:31:40.252Z,2.99
2023-02-25T07:32:40.409Z,2.94
2023-02-25T07:33:40.086Z,2.89
2023-02-25T07:34:40.051Z,3.02
2023-02-25T07:35:40.056Z,2.91
2023-02-25T07:36:40.045Z,3.14
2023-02-25T07:37:40.038Z,3.02
2023-02-25T07:38:40.060Z,2.99
2023-02-25T07:39:40.034Z,2.97
2023-02-25T07:40:39.987Z,2.93
2023-02-25T07:41:39.992Z,2.97
2023-02-25T07:42:47.530Z,3.05
2023-02-25T07:43:47.526Z,3.04
2023-02-25T07:44:48.959Z,3.12
2023-02-25T07:45:39.943Z,3.14
2023-02-25T07:46:39.932Z,3.00
2023-02-25T07:47:39.962Z,3.07
2023-02-25T07:48:39.917Z,2.96
2023-02-25T07:49:39.911Z,2.93
2023-02-25T07:50:39.965Z,3.00
2023-02-25T07:51:39.878Z,2.96
2023-02-25T07:52:39.898Z,2.89
2023-02-25T07:53:39.879Z,3.00
2023-02-25T07:54:39.874Z,3.00
2023-02-25T07:55:39.862Z,2.97
2023-02-25T07:56:39.858Z,3.08
2023-02-25T07:57:39.821Z,3.02
2023-02-25T07:58:39.812Z,2.97
2023-02-25T07:59:39.808Z,3.09
2023-02-25T08:00:39.789Z,3.09
2023-02-25T08:01:39.878Z,2.99
2023-02-25T08:02:39.876Z,3.05
2023-02-25T08:03:39.763Z,3.02
2023-02-25T08:04:39.814Z,3.11
2023-02-25T08:05:39.909Z,3.09
2023-02-25T08:06:39.738Z,3.15
2023-02-25T08:07:39.734Z,3.08
2023-02-25T08:08:39.706Z,3.15
2023-02-25T08:09:39.696Z,3.14
2023-02-25T08:10:39.686Z,2.96
2023-02-25T08:11:39.720Z,3.09
2023-02-25T08:12:39.665Z,3.17
2023-02-25T08:13:39.681Z,3.05
2023-02-25T08:14:39.643Z,3.02
2023-02-25T08:15:39.679Z,3.09
2023-02-25T08:16:39.614Z,3.12
2023-02-25T08:17:39.620Z,3.09
2023-02-25T08:18:39.612Z,3.14
2023-02-25T08:19:39.611Z,3.05
2023-02-25T08:20:39.615Z,3.07
2023-02-25T08:21:39.580Z,3.02
2023-02-25T08:22:39.568Z,3.04
2023-02-25T08:23:39.550Z,3.04
2023-02-25T08:24:39.568Z,3.11
2023-02-25T08:25:39.547Z,3.20
2023-02-25T08:26:39.533Z,3.15
2023-02-25T08:27:39.532Z,3.20
2023-02-25T08:28:39.493Z,3.22
2023-02-25T08:29:39.497Z,3.11
2023-02-25T08:30:39.547Z,3.02
2023-02-25T08:31:39.627Z,3.00
2023-02-25T08:32:39.655Z,3.02
2023-02-25T08:33:39.470Z,3.11
2023-02-25T08:34:39.425Z,3.05
2023-02-25T08:35:39.435Z,3.11
2023-02-25T08:36:39.409Z,3.09
2023-02-25T08:37:39.396Z,3.15
2023-02-25T08:38:39.409Z,3.11
2023-02-25T08:39:39.407Z,3.00
2023-02-25T08:40:39.384Z,3.05
2023-02-25T08:41:39.363Z,3.14
2023-02-25T08:42:39.343Z,3.14
2023-02-25T08:43:39.351Z,3.09
2023-02-25T08:44:39.336Z,3.12
2023-02-25T08:45:39.313Z,3.09
2023-02-25T08:46:39.372Z,3.12
2023-02-25T08:47:39.307Z,3.12
2023-02-25T08:48:39.269Z,2.97
2023-02-25T08:49:39.267Z,2.96
2023-02-25T08:50:39.248Z,2.94
2023-02-25T08:51:39.250Z,2.96
2023-02-25T08:52:41.843Z,3.00
2023-02-25T08:53:39.222Z,2.99
2023-02-25T08:54:39.366Z,2.94
2023-02-25T08:55:39.224Z,3.07
2023-02-25T08:56:39.207Z,3.11
2023-02-25T08:57:39.172Z,3.05
2023-02-25T08:58:39.178Z,3.12
2023-02-25T08:59:39.178Z,3.11
2023-02-25T09:00:39.225Z,3.18
2023-02-25T09:01:39.149Z,3.11
2023-02-25T09:02:39.149Z,3.20
2023-02-25T09:03:39.128Z,3.27
2023-02-25T09:04:39.145Z,3.25
2023-02-25T09:05:39.088Z,3.22
2023-02-25T09:06:39.079Z,3.25
2023-02-25T09:07:39.088Z,3.33
2023-02-25T09:08:39.071Z,3.32
2023-02-25T09:09:39.062Z,3.30
2023-02-25T09:10:49.768Z,3.33
2023-02-25T09:11:40.024Z,3.36
2023-02-25T09:12:39.009Z,3.41
2023-02-25T09:13:39.013Z,3.37
2023-02-25T09:14:38.986Z,3.46
2023-02-25T09:15:39.013Z,3.33
2023-02-25T09:16:39.051Z,3.35
2023-02-25T09:17:38.958Z,3.37
2023-02-25T09:18:38.966Z,3.26
2023-02-25T09:19:38.942Z,3.41
2023-02-25T09:20:38.940Z,3.44
2023-02-25T09:21:38.936Z,3.36
2023-02-25T09:22:38.919Z,3.36
2023-02-25T09:23:38.898Z,3.46
2023-02-25T09:24:38.899Z,3.45
2023-02-25T09:25:38.890Z,3.45
2023-02-25T09:26:38.874Z,3.49
2023-02-25T09:27:38.859Z,3.56
2023-02-25T09:28:38.841Z,3.63
2023-02-25T09:29:38.843Z,3.56
2023-02-25T09:30:38.826Z,3.44
2023-02-25T09:31:39.020Z,3.64
2023-02-25T09:32:38.990Z,3.54
2023-02-25T09:33:38.820Z,3.48
2023-02-25T09:34:38.789Z,3.54
2023-02-25T09:35:38.763Z,3.48
2023-02-25T09:36:38.754Z,3.52
2023-02-25T09:37:38.783Z,3.44
2023-02-25T09:38:38.750Z,3.48
2023-02-25T09:39:38.728Z,3.48
2023-02-25T09:40:38.741Z,3.49
2023-02-25T09:41:38.712Z,3.56
2023-02-25T09:42:38.691Z,3.46
2023-02-25T09:43:38.698Z,3.49
2023-02-25T09:44:38.677Z,3.44
2023-02-25T09:45:38.718Z,3.48
2023-02-25T09:46:38.648Z,3.49
2023-02-25T09:47:38.710Z,3.44
2023-02-25T09:48:38.637Z,3.59
2023-02-25T09:49:38.628Z,3.51
2023-02-25T09:50:38.613Z,3.35
2023-02-25T09:51:38.605Z,3.55
2023-02-25T09:52:38.610Z,3.64
2023-02-25T09:53:38.609Z,3.64
2023-02-25T09:54:38.617Z,3.74
2023-02-25T09:55:38.571Z,3.90
2023-02-25T09:56:38.553Z,3.72
2023-02-25T09:57:38.552Z,3.88
2023-02-25T09:58:38.538Z,4.00
2023-02-25T09:59:38.534Z,4.03
2023-02-25T10:00:38.548Z,4.16
2023-02-25T10:01:38.505Z,4.21
2023-02-25T10:02:38.609Z,4.26
2023-02-25T10:03:38.516Z,4.21
2023-02-25T10:04:38.480Z,4.27
2023-02-25T10:05:38.473Z,4.26
2023-02-25T10:06:38.459Z,4.23
2023-02-25T10:07:38.438Z,4.24
2023-02-25T10:08:38.454Z,4.21
2023-02-25T10:09:38.420Z,4.20
2023-02-25T10:10:38.403Z,4.00
2023-02-25T10:11:38.402Z,3.98
2023-02-25T10:12:38.390Z,3.87
2023-02-25T10:13:38.383Z,3.73
2023-02-25T10:14:38.370Z,3.37
2023-02-25T10:15:38.352Z,3.42
2023-02-25T10:16:38.469Z,3.27
2023-02-25T10:17:38.332Z,3.22
2023-02-25T10:18:38.338Z,3.12
2023-02-25T10:19:38.356Z,3.22
2023-02-25T10:20:38.315Z,3.18
2023-02-25T10:21:38.290Z,3.25
2023-02-25T10:22:38.284Z,3.30
2023-02-25T10:23:38.277Z,3.30
2023-02-25T10:24:38.273Z,3.29
2023-02-25T10:25:38.268Z,3.46
2023-02-25T10:26:38.244Z,3.35
2023-02-25T10:27:38.225Z,3.52
2023-02-25T10:28:38.220Z,3.46
2023-02-25T10:29:38.203Z,3.52
2023-02-25T10:30:38.296Z,3.45
2023-02-25T10:31:38.338Z,3.49
2023-02-25T10:32:38.206Z,3.51
2023-02-25T10:33:38.189Z,3.63
2023-02-25T10:34:38.157Z,3.45
2023-02-25T10:35:38.173Z,3.52
2023-02-25T10:36:38.141Z,3.69
2023-02-25T10:37:38.213Z,3.72
2023-02-25T10:38:38.126Z,3.81
2023-02-25T10:39:38.094Z,3.74
2023-02-25T10:40:38.101Z,3.87
2023-02-25T10:41:38.083Z,4.02
2023-02-25T10:42:38.098Z,4.00
2023-02-25T10:43:38.063Z,4.08
2023-02-25T10:44:38.040Z,4.13
2023-02-25T10:45:38.039Z,4.18
2023-02-25T10:46:38.161Z,4.20
2023-02-25T10:47:38.021Z,4.20
2023-02-25T10:48:38.024Z,4.34
2023-02-25T10:49:38.086Z,4.23
2023-02-25T10:50:45.844Z,4.26
2023-02-25T10:51:39.002Z,4.26
2023-02-25T10:52:37.976Z,4.36
2023-02-25T10:53:37.950Z,4.43
2023-02-25T10:54:37.957Z,4.35
2023-02-25T10:55:37.967Z,4.16
2023-02-25T10:56:37.942Z,3.69
2023-02-25T10:57:37.935Z,3.49
2023-02-25T10:58:37.907Z,3.30
2023-02-25T10:59:37.887Z,3.15
2023-02-25T11:00:37.895Z,3.12
2023-02-25T11:01:37.894Z,3.20
2023-02-25T11:02:37.918Z,3.09
2023-02-25T11:03:37.866Z,3.11
2023-02-25T11:04:37.851Z,3.11
2023-02-25T11:05:37.842Z,3.12
2023-02-25T11:06:37.850Z,3.25
2023-02-25T11:07:37.831Z,3.26
2023-02-25T11:08:37.808Z,3.23
2023-02-25T11:09:37.805Z,3.33
2023-02-25T11:10:37.824Z,3.42
2023-02-25T11:11:37.763Z,3.45
2023-02-25T11:12:37.792Z,3.55
2023-02-25T11:13:37.778Z,3.63
2023-02-25T11:14:37.743Z,3.69
2023-02-25T11:15:45.118Z,3.69
2023-02-25T11:16:38.871Z,3.78
2023-02-25T11:17:37.775Z,3.76
2023-02-25T11:19:49.022Z,3.73
2023-02-25T11:20:49.006Z,3.62
2023-02-25T11:21:48.993Z,3.69
2023-02-25T11:22:49.000Z,3.72
2023-02-25T11:23:48.979Z,3.78
2023-02-25T11:24:48.981Z,3.74
2023-02-25T11:25:48.964Z,3.52
2023-02-25T11:26:48.940Z,3.49
2023-02-25T11:27:48.938Z,3.46
2023-02-25T11:28:48.933Z,3.44
2023-02-25T11:29:48.910Z,3.52
2023-02-25T11:30:49.064Z,3.56
2023-02-25T11:31:49.213Z,3.67
2023-02-25T11:32:48.931Z,3.62
2023-02-25T11:33:48.873Z,3.76
2023-02-25T11:34:48.871Z,3.69
2023-02-25T11:35:48.845Z,3.76
2023-02-25T11:36:50.935Z,3.72
2023-02-25T11:37:48.831Z,3.66
2023-02-25T11:38:48.845Z,3.73
2023-02-25T11:39:48.822Z,3.78
2023-02-25T11:40:48.836Z,3.56
2023-02-25T11:41:48.800Z,3.48
2023-02-25T11:42:48.818Z,3.52
2023-02-25T11:43:48.759Z,3.49
2023-02-25T11:44:48.756Z,3.49
2023-02-25T11:45:48.753Z,3.37
2023-02-25T11:46:48.821Z,3.33
2023-02-25T11:47:48.722Z,3.36
2023-02-25T11:48:48.751Z,3.09
2023-02-25T11:49:48.735Z,3.15
2023-02-25T11:50:48.689Z,3.12
2023-02-25T11:51:48.705Z,3.02
2023-02-25T11:52:48.664Z,3.00
2023-02-25T11:53:48.728Z,3.11
2023-02-25T11:54:48.649Z,3.11
2023-02-25T11:55:48.654Z,3.08
2023-02-25T11:56:48.747Z,3.08
2023-02-25T11:57:48.620Z,3.12
2023-02-25T11:58:48.592Z,3.08
2023-02-25T11:59:48.581Z,3.14
2023-02-25T12:00:48.592Z,3.17
2023-02-25T12:01:48.598Z,3.20
2023-02-25T12:02:48.666Z,3.35
2023-02-25T12:03:48.590Z,3.35
2023-02-25T12:04:48.533Z,3.23
2023-02-25T12:05:48.607Z,3.30
2023-02-25T12:06:48.531Z,3.52
2023-02-25T12:08:05.227Z,3.46
2023-02-25T12:08:49.498Z,3.37
2023-02-25T12:09:48.486Z,3.15
2023-02-25T12:10:48.512Z,3.00
2023-02-25T12:11:48.462Z,3.07
2023-02-25T12:12:48.444Z,3.14
2023-02-25T12:13:48.484Z,3.15
2023-02-25T12:14:48.429Z,3.14
2023-02-25T12:15:48.492Z,3.12
2023-02-25T12:16:48.423Z,3.15
2023-02-25T12:17:48.413Z,3.26
2023-02-25T12:18:48.384Z,3.18
2023-02-25T12:19:48.433Z,3.23
2023-02-25T12:20:48.354Z,3.29
2023-02-25T12:21:48.357Z,3.32
2023-02-25T12:22:48.352Z,3.37
2023-02-25T12:23:48.336Z,3.41
2023-02-25T12:24:48.327Z,3.35
2023-02-25T12:25:48.308Z,3.23
2023-02-25T12:26:49.146Z,3.32
2023-02-25T12:27:48.285Z,3.17
2023-02-25T12:28:49.800Z,3.18
2023-02-25T12:29:48.279Z,3.27
2023-02-25T12:30:48.279Z,3.18
2023-02-25T12:31:48.386Z,3.41
2023-02-25T12:32:48.233Z,3.27
2023-02-25T12:33:48.226Z,3.45
2023-02-25T12:34:48.226Z,3.49
2023-02-25T12:35:48.228Z,3.46
2023-02-25T12:36:48.183Z,3.42
2023-02-25T12:37:48.182Z,3.64
2023-02-25T12:38:48.172Z,3.66
2023-02-25T12:39:48.184Z,3.66
2023-02-25T12:40:48.158Z,3.54
2023-02-25T12:41:48.142Z,3.62
2023-02-25T12:42:48.138Z,3.55
2023-02-25T12:43:48.128Z,3.37
2023-02-25T12:44:48.098Z,3.36
2023-02-25T12:45:48.132Z,3.45
2023-02-25T12:46:48.094Z,3.37
2023-02-25T12:47:48.078Z,3.30
2023-02-25T12:48:48.072Z,3.41
2023-02-25T12:49:48.071Z,3.26
2023-02-25T12:50:48.041Z,3.46
2023-02-25T12:51:48.071Z,3.46
2023-02-25T12:52:48.011Z,3.35
2023-02-25T12:53:48.013Z,3.25
2023-02-25T12:54:47.999Z,3.12
2023-02-25T12:55:47.987Z,3.29
2023-02-25T12:56:47.996Z,3.12
2023-02-25T12:57:47.971Z,3.22
2023-02-25T12:58:47.970Z,3.29
2023-02-25T12:59:47.964Z,3.32
2023-02-25T13:00:47.967Z,3.25
2023-02-25T13:01:47.936Z,3.29
2023-02-25T13:02:47.940Z,3.29
2023-02-25T13:03:47.925Z,3.25
2023-02-25T13:04:47.900Z,3.25
2023-02-25T13:05:47.875Z,3.17
2023-02-25T13:06:47.869Z,3.08
2023-02-25T13:07:47.932Z,3.15
2023-02-25T13:08:47.859Z,3.30
2023-02-25T13:09:47.846Z,3.25
2023-02-25T13:10:47.834Z,3.32
2023-02-25T13:12:10.660Z,3.25
2023-02-25T13:12:48.810Z,3.29
2023-02-25T13:13:47.811Z,3.25
2023-02-25T13:14:47.810Z,3.27
2023-02-25T13:15:47.767Z,3.22
2023-02-25T13:16:47.801Z,3.22
2023-02-25T13:17:47.747Z,3.17
2023-02-25T13:18:47.737Z,3.20
2023-02-25T13:19:47.752Z,3.22